Time;durP1;ratioP1;P1;durP2;ratioP2;P2;SDS_P1;SDS_P2;PMS_P1;PMS_P2;Temp;Humidity;BMP_temperature;BMP_pressure;BME280_temperature;BME280_humidity;BME280_pressure;Samples;Min_cycle;Max_cycle;Signal;HPM_P1;HPM_P2
2022/04/30 00:02:13;;;;;;;8.97;5.23;;;8.60;1.00;;;;;;5067093;28;20207;-57
2022/04/30 00:04:42;;;;;;;13.33;5.90;;;8.60;1.00;;;;;;5065030;28;20183;-57
2022/04/30 00:07:16;;;;;;;10.10;5.77;;;8.50;1.00;;;;;;5066191;28;20198;-58
2022/04/30 00:09:44;;;;;;;9.33;5.93;;;8.50;1.00;;;;;;5049858;28;20786;-57
2022/04/30 00:12:12;;;;;;;7.33;5.53;;;8.50;1.00;;;;;;5023517;28;20277;-58
2022/04/30 00:14:44;;;;;;;8.43;6.03;;;8.50;1.00;;;;;;5049586;28;21134;-58
2022/04/30 00:17:16;;;;;;;8.93;5.90;;;8.40;1.00;;;;;;5064191;28;20234;-58
2022/04/30 00:19:43;;;;;;;9.97;5.87;;;8.50;1.00;;;;;;5043326;28;20241;-58
2022/04/30 00:22:10;;;;;;;8.47;5.60;;;8.50;1.00;;;;;;5067599;28;20229;-58
2022/04/30 00:24:38;;;;;;;9.30;5.30;;;8.50;1.00;;;;;;5065194;28;20198;-58
2022/04/30 00:27:05;;;;;;;8.93;5.57;;;8.50;1.00;;;;;;5067354;28;20195;-58
2022/04/30 00:29:32;;;;;;;7.00;5.23;;;8.50;1.00;;;;;;5066880;28;20275;-58
2022/04/30 00:32:02;;;;;;;10.03;6.00;;;8.40;1.00;;;;;;5045169;28;20318;-58
2022/04/30 00:34:31;;;;;;;9.20;5.77;;;8.40;1.00;;;;;;5064518;28;20567;-59
2022/04/30 00:37:02;;;;;;;8.17;5.80;;;8.40;1.00;;;;;;5066918;28;20277;-59
2022/04/30 00:39:33;;;;;;;11.07;5.93;;;8.40;1.00;;;;;;5066569;28;20238;-59
2022/04/30 00:42:01;;;;;;;10.10;6.10;;;8.50;1.00;;;;;;5048655;28;20568;-58
2022/04/30 00:44:28;;;;;;;11.53;6.00;;;8.50;1.00;;;;;;5064779;28;20764;-58
2022/04/30 00:46:56;;;;;;;10.33;6.57;;;8.50;1.00;;;;;;5067003;28;20195;-59
2022/04/30 00:49:23;;;;;;;11.93;5.73;;;8.40;1.00;;;;;;5052103;28;20704;-59
2022/04/30 00:51:51;;;;;;;10.83;6.13;;;8.50;1.00;;;;;;5066521;28;20256;-59
2022/04/30 00:54:20;;;;;;;11.70;6.40;;;8.40;1.00;;;;;;5046847;28;20301;-59
2022/04/30 00:56:51;;;;;;;8.77;6.03;;;8.40;1.00;;;;;;5066239;28;20186;-58
2022/04/30 00:59:19;;;;;;;11.10;6.10;;;8.40;1.00;;;;;;5065568;28;20214;-58
2022/04/30 01:01:47;;;;;;;9.40;6.50;;;8.30;1.00;;;;;;5039625;28;20368;-58
2022/04/30 01:04:33;;;;;;;9.27;5.87;;;8.30;1.00;;;;;;5066743;28;20206;-59
2022/04/30 01:07:08;;;;;;;9.87;6.37;;;8.30;1.00;;;;;;5064691;28;20725;-59
2022/04/30 01:09:39;;;;;;;8.47;6.10;;;8.30;1.00;;;;;;5064046;28;20194;-59
2022/04/30 01:12:13;;;;;;;9.20;6.50;;;8.30;1.00;;;;;;5039519;28;20203;-58
2022/04/30 01:14:41;;;;;;;8.53;5.57;;;8.20;1.00;;;;;;5064434;28;20195;-59
2022/04/30 01:17:12;;;;;;;12.07;6.13;;;8.20;1.00;;;;;;5047216;28;20605;-57
2022/04/30 01:19:43;;;;;;;14.80;6.80;;;8.20;1.00;;;;;;5063633;28;20199;-58
2022/04/30 01:22:31;;;;;;;12.03;7.37;;;8.30;1.00;;;;;;5064196;28;20210;-58
2022/04/30 01:25:00;;;;;;;10.03;6.50;;;8.30;1.00;;;;;;5045432;28;20646;-57
2022/04/30 01:27:28;;;;;;;12.77;6.70;;;8.30;1.00;;;;;;5041446;28;20260;-57
2022/04/30 01:29:56;;;;;;;10.07;6.77;;;8.40;1.00;;;;;;5065936;28;20257;-57
2022/04/30 01:38:11;;;;;;;9.70;6.27;;;8.50;1.00;;;;;;5063822;28;20230;-58
2022/04/30 01:40:38;;;;;;;10.33;6.50;;;8.50;1.00;;;;;;5063202;28;20234;-57
2022/04/30 01:43:06;;;;;;;10.57;6.37;;;8.50;1.00;;;;;;5054670;28;20199;-57
2022/04/30 01:45:34;;;;;;;10.43;6.27;;;8.50;1.00;;;;;;5045578;28;20183;-57
2022/04/30 01:48:03;;;;;;;9.53;6.20;;;8.50;1.00;;;;;;5064938;28;20245;-58
2022/04/30 01:50:33;;;;;;;10.37;6.83;;;8.50;1.00;;;;;;5064225;28;20335;-58
2022/04/30 01:53:00;;;;;;;11.47;7.03;;;8.50;1.00;;;;;;5064268;28;20191;-58
2022/04/30 01:55:29;;;;;;;8.60;6.60;;;8.40;1.00;;;;;;5065894;28;20190;-58
2022/04/30 01:58:01;;;;;;;10.23;6.53;;;8.40;1.00;;;;;;5061854;28;20252;-57
2022/04/30 02:00:28;;;;;;;11.67;6.87;;;8.30;1.00;;;;;;5067712;28;20943;-57
2022/04/30 02:03:00;;;;;;;8.67;7.03;;;8.30;1.00;;;;;;5071249;28;20564;-57
2022/04/30 02:05:28;;;;;;;9.40;7.27;;;8.30;1.00;;;;;;5071967;28;20600;-57
2022/04/30 02:08:03;;;;;;;11.07;7.43;;;8.20;1.00;;;;;;5071466;28;20634;-57
2022/04/30 02:10:30;;;;;;;11.00;7.10;;;8.20;1.00;;;;;;5072849;28;20194;-58
2022/04/30 02:12:59;;;;;;;10.60;7.23;;;8.20;1.00;;;;;;5072005;28;20674;-58
2022/04/30 02:15:27;;;;;;;10.43;6.97;;;8.10;1.00;;;;;;5071041;28;20237;-58
2022/04/30 02:17:56;;;;;;;11.03;7.07;;;8.00;1.00;;;;;;5054501;28;20203;-57
2022/04/30 02:20:33;;;;;;;10.60;7.30;;;8.00;1.00;;;;;;5072882;28;20244;-57
2022/04/30 02:23:02;;;;;;;9.93;6.67;;;7.90;1.00;;;;;;5072409;28;20213;-57
2022/04/30 02:25:30;;;;;;;12.53;7.50;;;7.80;1.00;;;;;;5072559;28;20410;-57
2022/04/30 02:28:04;;;;;;;11.13;7.10;;;7.80;1.00;;;;;;5071760;28;20195;-57
2022/04/30 02:30:35;;;;;;;10.97;7.80;;;7.70;1.00;;;;;;5052333;28;20270;-57
2022/04/30 02:33:13;;;;;;;10.70;7.40;;;7.70;1.00;;;;;;5069838;28;20226;-57
2022/04/30 02:35:44;;;;;;;12.90;7.60;;;7.60;1.00;;;;;;5060930;28;20198;-58
2022/04/30 02:38:12;;;;;;;8.23;6.80;;;7.60;1.00;;;;;;5036985;28;20225;-57
2022/04/30 02:40:41;;;;;;;12.73;7.90;;;7.50;1.00;;;;;;5070023;28;20278;-57
2022/04/30 02:43:15;;;;;;;10.87;7.73;;;7.40;1.00;;;;;;5071933;28;20225;-57
2022/04/30 02:45:43;;;;;;;11.00;7.67;;;7.40;1.00;;;;;;5050427;28;20209;-58
2022/04/30 02:48:12;;;;;;;12.77;7.47;;;7.40;1.00;;;;;;5070683;28;20218;-57
2022/04/30 02:50:40;;;;;;;8.30;7.43;;;7.30;1.00;;;;;;5072974;28;20187;-57
2022/04/30 02:53:07;;;;;;;12.50;7.60;;;7.20;1.00;;;;;;5072282;28;20199;-57
2022/04/30 02:55:35;;;;;;;12.93;7.90;;;7.20;1.00;;;;;;5069640;28;20226;-58
2022/04/30 03:00:51;;;;;;;9.37;7.53;;;7.00;1.00;;;;;;5069082;28;20219;-57
2022/04/30 03:03:38;;;;;;;12.83;7.60;;;7.10;1.00;;;;;;5067944;28;20289;-57
2022/04/30 03:06:06;;;;;;;13.70;8.03;;;7.10;1.00;;;;;;5070133;28;20230;-57
2022/04/30 03:08:33;;;;;;;9.17;6.87;;;7.00;1.00;;;;;;5070925;28;20206;-57
2022/04/30 03:11:03;;;;;;;10.30;7.10;;;7.00;1.00;;;;;;5069670;28;20268;-57
2022/04/30 03:13:30;;;;;;;12.17;7.37;;;7.00;1.00;;;;;;5067485;28;20210;-57
2022/04/30 03:21:41;;;;;;;9.80;7.17;;;6.90;1.00;;;;;;5048818;28;20199;-57
2022/04/30 03:24:19;;;;;;;10.07;7.40;;;6.80;18.00;;;;;;5042499;28;20206;-57
2022/04/30 03:26:48;;;;;;;10.03;7.00;;;6.80;22.90;;;;;;5034504;28;20210;-57
2022/04/30 03:29:15;;;;;;;7.93;7.10;;;6.70;46.00;;;;;;5067085;28;20778;-57
2022/04/30 03:31:42;;;;;;;11.40;6.90;;;6.70;75.30;;;;;;5068028;28;21038;-57
2022/04/30 03:34:12;;;;;;;10.83;6.90;;;6.70;72.40;;;;;;5064094;28;20195;-58
2022/04/30 03:36:39;;;;;;;12.27;7.23;;;6.60;78.50;;;;;;5067816;28;20199;-57
2022/04/30 03:39:07;;;;;;;14.93;7.33;;;6.60;95.50;;;;;;5050536;28;20829;-58
2022/04/30 03:41:33;;;;;;;12.40;7.57;;;6.60;99.90;;;;;;5069354;28;20223;-58
2022/04/30 03:44:02;;;;;;;9.83;6.93;;;6.50;99.90;;;;;;5049085;28;20248;-57
2022/04/30 03:46:29;;;;;;;15.13;7.20;;;6.50;99.90;;;;;;5067289;28;20206;-57
2022/04/30 03:48:56;;;;;;;13.30;7.80;;;6.40;99.90;;;;;;5068440;28;20283;-58
2022/04/30 03:51:24;;;;;;;9.53;7.27;;;6.40;99.90;;;;;;5056442;28;20252;-57
2022/04/30 03:53:53;;;;;;;9.63;7.13;;;6.40;99.90;;;;;;5068519;28;20199;-57
2022/04/30 03:56:20;;;;;;;14.00;8.43;;;6.30;99.90;;;;;;5066550;28;20199;-57
2022/04/30 03:58:48;;;;;;;12.50;8.00;;;6.30;99.90;;;;;;5067783;28;20539;-57
2022/04/30 04:01:19;;;;;;;11.07;7.50;;;6.30;99.90;;;;;;5065325;28;20214;-57
2022/04/30 04:03:48;;;;;;;15.60;7.60;;;6.30;99.90;;;;;;5064265;28;20549;-57
2022/04/30 04:06:15;;;;;;;9.10;7.17;;;6.20;99.90;;;;;;5066656;28;20260;-57
2022/04/30 04:08:43;;;;;;;12.13;7.43;;;6.20;99.90;;;;;;5067270;28;20267;-57
2022/04/30 04:11:13;;;;;;;12.83;7.63;;;6.20;99.90;;;;;;5069437;28;20998;-57
2022/04/30 04:19:12;;;;;;;14.57;8.67;;;6.10;99.90;;;;;;5053235;28;20568;-57
2022/04/30 04:21:39;;;;;;;10.43;7.70;;;6.10;99.90;;;;;;5066382;28;20242;-57
2022/04/30 04:26:52;;;;;;;12.70;7.53;;;6.10;99.90;;;;;;5067059;28;20191;-58
2022/04/30 04:29:19;;;;;;;12.40;7.90;;;6.10;99.90;;;;;;5065517;28;20657;-58
2022/04/30 04:31:46;;;;;;;10.83;7.87;;;6.10;99.90;;;;;;5066500;28;20239;-58
2022/04/30 04:34:13;;;;;;;13.13;7.87;;;6.10;99.90;;;;;;5066881;28;20203;-58
2022/04/30 04:36:40;;;;;;;12.40;7.93;;;6.20;99.90;;;;;;5064542;28;20274;-57
2022/04/30 04:39:12;;;;;;;12.50;8.40;;;6.20;99.90;;;;;;5049028;28;20218;-57
2022/04/30 04:41:42;;;;;;;13.70;8.70;;;6.30;99.90;;;;;;5065441;28;20291;-57
2022/04/30 04:44:09;;;;;;;14.07;8.53;;;6.30;99.90;;;;;;5066473;28;20666;-58
2022/04/30 04:46:38;;;;;;;12.63;7.83;;;6.40;99.90;;;;;;5065248;28;20202;-58
2022/04/30 04:49:07;;;;;;;12.43;8.60;;;6.50;99.90;;;;;;5048425;28;20190;-56
2022/04/30 04:51:34;;;;;;;11.40;7.73;;;6.50;99.90;;;;;;5064280;28;20222;-56
2022/04/30 04:54:02;;;;;;;9.10;7.10;;;6.60;99.90;;;;;;5067808;28;20630;-56
2022/04/30 04:56:29;;;;;;;13.50;6.87;;;6.70;99.90;;;;;;5065743;28;20199;-57
2022/04/30 04:58:57;;;;;;;12.87;6.93;;;6.80;99.90;;;;;;5066524;28;20199;-57
2022/04/30 05:01:24;;;;;;;13.70;6.97;;;6.80;99.90;;;;;;5065881;28;20264;-56
2022/04/30 05:03:51;;;;;;;11.00;6.63;;;6.90;99.90;;;;;;5065399;28;20661;-56
2022/04/30 05:06:18;;;;;;;9.83;6.53;;;6.90;99.90;;;;;;5046852;28;20191;-56
2022/04/30 05:08:46;;;;;;;10.03;6.67;;;7.10;81.60;;;;;;5066747;28;20824;-57
2022/04/30 05:11:13;;;;;;;15.97;7.80;;;7.30;32.50;;;;;;5066063;28;20666;-56
2022/04/30 05:13:40;;;;;;;9.53;6.50;;;7.50;10.40;;;;;;5064280;28;20638;-56
2022/04/30 05:16:07;;;;;;;12.93;7.17;;;7.70;1.00;;;;;;5065433;28;20727;-56
2022/04/30 05:18:34;;;;;;;13.80;6.50;;;7.80;1.00;;;;;;5064870;28;20191;-56
2022/04/30 05:21:00;;;;;;;10.03;6.10;;;8.00;1.00;;;;;;5065393;28;20211;-56
2022/04/30 05:23:27;;;;;;;6.07;5.47;;;8.30;1.00;;;;;;5064400;28;20272;-56
2022/04/30 05:25:54;;;;;;;7.70;6.20;;;8.90;1.00;;;;;;5056243;28;20256;-56
2022/04/30 05:28:22;;;;;;;9.57;5.83;;;9.40;1.00;;;;;;5065823;28;20584;-56
2022/04/30 05:30:48;;;;;;;9.37;5.53;;;10.50;1.00;;;;;;5066056;28;20764;-56
2022/04/30 05:33:15;;;;;;;7.30;5.03;;;11.80;1.00;;;;;;5067796;28;20213;-57
2022/04/30 05:35:42;;;;;;;6.63;4.90;;;12.40;1.00;;;;;;5047327;28;20191;-59
2022/04/30 05:38:09;;;;;;;5.70;4.80;;;12.20;1.00;;;;;;5066334;28;20268;-58
2022/04/30 05:40:36;;;;;;;9.40;4.90;;;12.00;1.00;;;;;;5066843;28;20195;-56
2022/04/30 05:43:04;;;;;;;8.73;4.93;;;12.00;1.00;;;;;;5065985;28;20229;-56
2022/04/30 05:45:31;;;;;;;5.97;4.70;;;11.80;1.00;;;;;;5024939;28;20223;-56
2022/04/30 05:47:58;;;;;;;8.00;4.90;;;12.40;1.00;;;;;;5065983;28;20199;-57
2022/04/30 05:50:25;;;;;;;8.00;4.30;;;14.20;1.00;;;;;;5064341;28;20290;-56
2022/04/30 05:52:53;;;;;;;7.17;4.33;;;15.40;99.90;;;;;;5026209;28;20203;-56
2022/04/30 05:55:24;;;;;;;9.37;5.03;;;14.80;99.90;;;;;;5054958;28;20203;-56
2022/04/30 05:57:51;;;;;;;6.63;4.60;;;13.80;99.90;;;;;;5066358;28;20187;-57
2022/04/30 06:00:18;;;;;;;9.90;4.73;;;12.60;99.90;;;;;;5063471;28;20218;-58
2022/04/30 06:02:47;;;;;;;7.63;5.10;;;12.20;99.90;;;;;;5065024;28;20670;-58
2022/04/30 06:05:15;;;;;;;10.70;5.60;;;12.40;99.90;;;;;;5064020;28;20198;-57
2022/04/30 06:07:42;;;;;;;8.60;4.83;;;12.90;99.90;;;;;;5065224;28;20195;-57
2022/04/30 06:10:09;;;;;;;7.43;5.10;;;13.20;99.90;;;;;;5045902;28;20265;-57
2022/04/30 06:12:36;;;;;;;7.63;5.07;;;13.00;99.90;;;;;;5062294;28;20201;-57
2022/04/30 06:15:04;;;;;;;8.90;4.23;;;14.20;99.90;;;;;;5046642;28;20228;-57
2022/04/30 06:17:31;;;;;;;7.25;4.00;;;17.00;99.90;;;;;;5066121;28;20228;-59
2022/04/30 06:19:58;;;;;;;9.90;4.55;;;18.90;99.90;;;;;;5056298;28;20253;-57
2022/04/30 06:22:25;;;;;;;9.00;3.65;;;19.50;99.90;;;;;;5066261;28;20261;-57
2022/04/30 06:24:52;;;;;;;7.55;4.25;;;21.70;99.90;;;;;;5066455;28;20195;-58
2022/04/30 06:27:20;;;;;;;7.65;4.25;;;22.00;99.90;;;;;;5065923;28;20194;-57
2022/04/30 06:29:49;;;;;;;6.47;4.20;;;21.40;99.90;;;;;;5053324;28;20195;-57
2022/04/30 06:32:16;;;;;;;8.18;4.68;;;22.40;99.90;;;;;;5066502;28;20237;-58
2022/04/30 06:34:43;;;;;;;8.23;4.20;;;22.10;99.90;;;;;;5064721;28;20264;-58
2022/04/30 06:37:10;;;;;;;6.78;4.25;;;23.00;99.90;;;;;;5066617;28;20282;-58
2022/04/30 06:39:37;;;;;;;7.07;4.75;;;23.10;99.90;;;;;;5065709;28;20219;-58
2022/04/30 06:42:05;;;;;;;6.95;4.30;;;23.10;99.90;;;;;;5065302;28;20646;-58
2022/04/30 06:44:32;;;;;;;11.23;5.03;;;22.60;99.90;;;;;;5065546;28;20203;-58
2022/04/30 06:46:59;;;;;;;6.93;4.60;;;20.00;99.90;;;;;;5069156;28;20233;-57
2022/04/30 06:49:25;;;;;;;8.75;4.45;;;18.30;99.90;;;;;;5068974;28;20228;-57
2022/04/30 06:51:52;;;;;;;7.07;4.55;;;16.70;99.90;;;;;;5070141;28;20656;-57
2022/04/30 06:57:11;;;;;;;8.07;5.07;;;17.20;99.90;;;;;;5068361;28;20198;-57
2022/04/30 06:59:41;;;;;;;9.70;5.43;;;15.70;99.90;;;;;;5069568;28;20203;-57
2022/04/30 07:02:13;;;;;;;8.40;4.88;;;15.00;99.90;;;;;;5067389;28;20289;-57
2022/04/30 07:04:41;;;;;;;11.53;5.50;;;14.70;99.90;;;;;;5068289;28;20206;-57
2022/04/30 07:07:10;;;;;;;8.63;5.33;;;14.40;99.90;;;;;;5066487;28;20190;-57
2022/04/30 07:09:37;;;;;;;6.83;5.00;;;14.40;99.90;;;;;;5068600;28;20195;-58
2022/04/30 07:12:07;;;;;;;10.07;4.70;;;14.20;99.90;;;;;;5064491;28;20199;-58
2022/04/30 07:14:36;;;;;;;9.30;4.40;;;15.30;99.90;;;;;;5067041;28;20199;-57
2022/04/30 07:17:07;;;;;;;8.98;4.70;;;17.30;99.90;;;;;;5067386;28;20237;-57
2022/04/30 07:19:35;;;;;;;8.98;4.72;;;19.40;99.90;;;;;;5068568;28;20280;-57
2022/04/30 07:22:02;;;;;;;9.00;4.40;;;21.60;99.90;;;;;;5067571;28;20218;-57
2022/04/30 07:24:31;;;;;;;6.75;3.88;;;25.40;99.90;;;;;;5067783;28;20300;-58
2022/04/30 07:26:58;;;;;;;7.97;4.38;;;26.90;99.90;;;;;;5066631;28;20223;-57
2022/04/30 07:29:25;;;;;;;6.65;4.40;;;26.20;99.90;;;;;;5068189;28;20675;-57
2022/04/30 07:31:53;;;;;;;9.52;4.35;;;24.20;99.90;;;;;;5068123;28;20306;-57
2022/04/30 07:34:20;;;;;;;7.38;4.43;;;21.30;99.90;;;;;;5047842;28;20213;-57
2022/04/30 07:36:47;;;;;;;9.38;4.68;;;22.60;99.90;;;;;;5068785;28;20629;-57
2022/04/30 07:39:14;;;;;;;7.72;4.72;;;20.50;99.90;;;;;;5067284;28;20223;-58
2022/04/30 07:41:41;;;;;;;9.25;4.57;;;20.70;99.90;;;;;;5059086;28;20203;-58
2022/04/30 07:44:08;;;;;;;9.15;4.28;;;24.50;99.90;;;;;;5063700;28;20293;-58
2022/04/30 07:46:37;;;;;;;6.80;4.93;;;22.50;99.90;;;;;;5065671;28;20655;-58
2022/04/30 07:49:04;;;;;;;9.80;4.75;;;18.70;99.90;;;;;;5066494;28;20198;-59
2022/04/30 07:51:35;;;;;;;7.50;4.25;;;17.00;99.90;;;;;;5049500;28;20195;-58
2022/04/30 07:54:02;;;;;;;8.65;4.57;;;19.60;99.90;;;;;;5063399;28;20195;-59
2022/04/30 07:56:29;;;;;;;5.20;3.90;;;22.60;99.90;;;;;;5064986;28;20875;-59
2022/04/30 07:58:56;;;;;;;5.18;3.60;;;23.60;99.90;;;;;;5065172;28;20683;-58
2022/04/30 08:01:23;;;;;;;4.53;3.35;;;25.70;99.90;;;;;;5065515;28;20328;-58
2022/04/30 08:03:51;;;;;;;5.15;3.75;;;26.40;99.90;;;;;;5064430;28;20210;-58
2022/04/30 08:06:18;;;;;;;7.10;3.80;;;26.10;99.90;;;;;;5060819;28;20209;-58
2022/04/30 08:08:45;;;;;;;6.72;3.90;;;25.20;99.90;;;;;;5067654;28;20195;-57
2022/04/30 08:11:13;;;;;;;6.38;3.88;;;23.90;99.90;;;;;;5064844;28;20195;-57
2022/04/30 08:13:40;;;;;;;7.50;3.55;;;25.00;99.90;;;;;;5064550;28;20249;-57
2022/04/30 08:16:09;;;;;;;6.30;3.65;;;25.00;99.90;;;;;;5065757;28;20229;-58
2022/04/30 08:18:38;;;;;;;7.90;3.47;;;27.00;99.90;;;;;;5065843;28;20203;-58
2022/04/30 08:21:06;;;;;;;5.85;3.97;;;24.20;99.90;;;;;;5064271;28;20261;-58
2022/04/30 08:23:34;;;;;;;8.05;4.22;;;22.40;99.90;;;;;;5063606;28;20211;-57
2022/04/30 08:26:01;;;;;;;8.10;4.38;;;20.90;99.90;;;;;;5064743;28;20230;-57
2022/04/30 08:28:29;;;;;;;8.20;3.75;;;24.30;99.90;;;;;;5061463;28;20198;-57
2022/04/30 08:30:59;;;;;;;7.03;3.83;;;28.50;99.90;;;;;;5064146;28;20195;-58
2022/04/30 08:33:26;;;;;;;9.13;3.83;;;29.20;99.90;;;;;;5063829;28;20778;-57
2022/04/30 08:35:53;;;;;;;4.43;3.13;;;29.10;99.90;;;;;;5065133;28;20278;-57
2022/04/30 08:38:20;;;;;;;6.25;3.72;;;28.00;99.90;;;;;;5066491;28;20215;-58
2022/04/30 08:40:48;;;;;;;5.82;3.65;;;27.20;99.90;;;;;;5062367;28;20194;-57
2022/04/30 08:43:16;;;;;;;4.50;3.40;;;28.50;99.90;;;;;;5064946;28;20207;-57
2022/04/30 08:45:47;;;;;;;5.05;3.50;;;29.30;99.90;;;;;;5065148;28;20222;-57
2022/04/30 08:48:15;;;;;;;5.53;3.60;;;28.60;99.90;;;;;;5064959;28;20187;-57
2022/04/30 08:50:45;;;;;;;5.55;3.70;;;24.00;99.90;;;;;;5066794;28;20229;-58
2022/04/30 08:53:14;;;;;;;7.65;4.40;;;20.70;99.90;;;;;;5059910;28;20207;-59
2022/04/30 08:55:43;;;;;;;6.15;4.03;;;18.50;99.90;;;;;;5065441;28;20199;-57
2022/04/30 08:58:11;;;;;;;7.43;4.18;;;18.40;99.90;;;;;;5064829;28;20198;-57
2022/04/30 09:00:43;;;;;;;5.30;4.15;;;18.50;99.90;;;;;;5066612;28;20227;-57
2022/04/30 09:03:18;;;;;;;5.93;4.10;;;21.00;99.90;;;;;;5048213;28;20266;-57
2022/04/30 09:05:46;;;;;;;5.38;3.63;;;21.00;99.90;;;;;;5063257;28;20218;-59
2022/04/30 09:08:16;;;;;;;5.25;3.28;;;22.00;99.90;;;;;;5061521;28;20218;-59
2022/04/30 09:10:43;;;;;;;4.35;3.22;;;22.50;99.90;;;;;;5062310;28;20248;-58
2022/04/30 09:13:15;;;;;;;4.78;3.50;;;20.60;99.90;;;;;;5061517;28;20727;-58
2022/04/30 09:15:46;;;;;;;6.47;3.72;;;23.40;99.90;;;;;;5065572;28;20199;-59
2022/04/30 09:18:14;;;;;;;5.72;3.05;;;22.10;99.90;;;;;;5067301;28;20240;-57
2022/04/30 09:20:50;;;;;;;4.32;2.80;;;20.30;99.90;;;;;;5045245;28;20264;-60
2022/04/30 09:23:31;;;;;;;5.32;3.35;;;21.50;99.90;;;;;;5046800;28;20206;-58
2022/04/30 09:26:02;;;;;;;3.70;2.50;;;23.70;99.90;;;;;;5061618;28;20254;-58
2022/04/30 09:28:33;;;;;;;5.45;2.80;;;26.40;99.90;;;;;;5064285;28;20662;-56
2022/04/30 09:31:11;;;;;;;7.88;3.17;;;25.80;99.90;;;;;;5065232;28;20242;-57
2022/04/30 09:33:51;;;;;;;5.82;2.47;;;26.20;99.90;;;;;;5049028;28;20190;-58
2022/04/30 09:39:15;;;;;;;4.05;3.00;;;30.40;99.90;;;;;;5066391;28;20215;-57
2022/04/30 09:41:42;;;;;;;3.95;2.85;;;26.30;99.90;;;;;;5065373;28;20973;-57
2022/04/30 09:44:12;;;;;;;6.35;3.63;;;23.90;99.90;;;;;;5064869;28;20215;-57
2022/04/30 09:46:41;;;;;;;4.57;2.75;;;26.70;99.90;;;;;;5064891;28;20205;-57
2022/04/30 09:54:43;;;;;;;4.40;2.85;;;26.10;99.90;;;;;;5062222;28;20674;-58
2022/04/30 09:57:14;;;;;;;3.90;2.80;;;24.10;99.90;;;;;;5065696;28;20199;-58
2022/04/30 09:59:46;;;;;;;6.82;4.45;;;20.90;99.90;;;;;;5064917;28;20190;-58
2022/04/30 10:02:16;;;;;;;3.38;2.90;;;21.00;99.90;;;;;;5070682;28;20205;-57
2022/04/30 10:04:45;;;;;;;6.35;3.22;;;22.20;99.90;;;;;;5065415;28;20218;-58
2022/04/30 10:07:19;;;;;;;4.50;3.05;;;25.80;99.90;;;;;;5065126;28;20244;-57
2022/04/30 10:09:58;;;;;;;4.07;3.08;;;28.60;99.90;;;;;;5046716;28;20236;-57
2022/04/30 10:12:41;;;;;;;7.13;4.43;;;24.90;99.90;;;;;;5044338;28;20803;-57
2022/04/30 10:15:41;;;;;;;8.10;3.80;;;22.80;99.90;;;;;;5067444;28;20214;-57
2022/04/30 10:18:10;;;;;;;6.85;4.07;;;22.10;99.90;;;;;;5045851;28;20688;-58
2022/04/30 10:20:37;;;;;;;7.85;3.70;;;21.10;99.90;;;;;;5063650;28;20561;-58
2022/04/30 10:23:07;;;;;;;5.72;3.40;;;21.40;99.90;;;;;;5071112;28;20210;-59
2022/04/30 10:25:35;;;;;;;5.60;2.97;;;20.30;99.90;;;;;;5068782;28;20240;-57
2022/04/30 10:28:16;;;;;;;4.22;3.30;;;20.40;99.90;;;;;;5058523;28;20264;-57
2022/04/30 10:30:45;;;;;;;4.07;3.40;;;19.70;99.90;;;;;;5065071;28;20243;-58
2022/04/30 10:33:12;;;;;;;5.00;3.85;;;19.90;99.90;;;;;;5046195;28;20199;-57
2022/04/30 10:35:42;;;;;;;3.88;3.00;;;20.60;99.90;;;;;;5057263;28;20246;-57
2022/04/30 10:38:09;;;;;;;4.88;3.67;;;20.70;99.90;;;;;;5070059;28;20344;-57
2022/04/30 10:40:41;;;;;;;6.05;3.20;;;20.40;99.90;;;;;;5048989;28;20194;-57
2022/04/30 10:43:42;;;;;;;5.53;3.00;;;21.10;99.90;;;;;;5069586;28;20210;-57
2022/04/30 10:46:12;;;;;;;5.28;3.15;;;23.80;99.90;;;;;;5042813;28;20259;-57
2022/04/30 10:48:40;;;;;;;9.23;3.20;;;24.20;99.90;;;;;;5067304;28;20222;-57
2022/04/30 10:51:07;;;;;;;5.38;3.10;;;24.40;99.90;;;;;;5066639;28;20195;-60
2022/04/30 10:53:35;;;;;;;4.03;3.10;;;22.90;99.90;;;;;;5068464;28;20227;-57
2022/04/30 10:56:04;;;;;;;12.25;3.20;;;20.80;99.90;;;;;;5066900;28;20321;-57
2022/04/30 10:58:31;;;;;;;6.45;2.90;;;21.90;99.90;;;;;;5069335;28;20748;-58
2022/04/30 11:01:11;;;;;;;2.83;2.45;;;24.70;99.90;;;;;;5068143;28;20669;-58
2022/04/30 11:03:40;;;;;;;3.50;2.85;;;26.10;99.90;;;;;;5065591;28;20236;-58
2022/04/30 11:06:29;;;;;;;4.60;2.90;;;27.00;99.90;;;;;;5066620;28;20677;-57
2022/04/30 11:09:07;;;;;;;6.15;3.25;;;26.70;99.90;;;;;;5048211;28;20209;-57
2022/04/30 11:11:36;;;;;;;5.82;3.47;;;23.40;99.90;;;;;;5049727;28;20286;-56
2022/04/30 11:14:09;;;;;;;4.82;3.55;;;21.60;99.90;;;;;;5065601;28;20223;-57
2022/04/30 11:16:41;;;;;;;8.35;3.95;;;21.00;99.90;;;;;;5048115;28;20739;-57
2022/04/30 11:19:12;;;;;;;4.93;3.55;;;19.60;99.90;;;;;;5065554;28;20199;-57
2022/04/30 11:21:52;;;;;;;4.45;3.30;;;19.90;99.90;;;;;;5068694;28;20198;-57
2022/04/30 11:24:29;;;;;;;5.70;2.97;;;21.40;99.90;;;;;;5066659;28;20234;-57
2022/04/30 11:27:03;;;;;;;3.45;2.75;;;23.00;99.90;;;;;;5060128;28;21556;-58
2022/04/30 11:29:37;;;;;;;5.38;3.03;;;24.60;99.90;;;;;;5067391;28;20182;-59
2022/04/30 11:32:05;;;;;;;4.53;2.90;;;24.70;99.90;;;;;;5047364;28;20233;-57
2022/04/30 11:34:33;;;;;;;4.13;3.08;;;23.40;99.90;;;;;;5065193;28;20195;-58
2022/04/30 11:37:01;;;;;;;11.45;7.88;;;22.30;99.90;;;;;;5066015;28;20290;-60
2022/04/30 11:39:29;;;;;;;5.47;3.42;;;21.90;99.90;;;;;;5052979;28;20589;-57
2022/04/30 11:41:57;;;;;;;4.72;3.90;;;21.60;99.90;;;;;;5065356;28;20429;-57
2022/04/30 11:44:26;;;;;;;7.43;4.28;;;20.20;99.90;;;;;;5071725;28;20229;-58
2022/04/30 11:46:54;;;;;;;7.82;4.07;;;19.90;99.90;;;;;;5049185;28;20678;-57
2022/04/30 11:49:27;;;;;;;6.30;4.28;;;18.90;99.90;;;;;;5046995;28;20204;-57
2022/04/30 11:52:13;;;;;;;6.05;4.10;;;18.30;99.90;;;;;;5065675;28;20194;-57
2022/04/30 11:54:41;;;;;;;26.00;4.60;;;18.50;99.90;;;;;;5066364;28;20600;-57
2022/04/30 11:57:09;;;;;;;7.22;3.88;;;19.80;99.90;;;;;;5064720;28;20288;-57
2022/04/30 11:59:38;;;;;;;5.60;3.03;;;22.10;99.90;;;;;;5067019;28;20214;-57
2022/04/30 12:02:14;;;;;;;4.28;3.80;;;23.80;99.90;;;;;;5063860;28;20201;-58
2022/04/30 12:04:42;;;;;;;6.00;4.15;;;22.80;99.90;;;;;;5047644;28;20217;-57
2022/04/30 12:07:11;;;;;;;5.75;3.50;;;20.70;99.90;;;;;;5065378;28;20677;-58
2022/04/30 12:09:47;;;;;;;10.23;3.53;;;20.40;99.90;;;;;;5067646;28;20190;-58
2022/04/30 12:12:21;;;;;;;4.95;3.40;;;22.10;99.90;;;;;;5065488;28;20206;-58
2022/04/30 12:14:51;;;;;;;5.47;4.10;;;21.90;99.90;;;;;;5065930;28;20195;-58
2022/04/30 12:17:18;;;;;;;4.93;3.83;;;20.80;99.90;;;;;;5064467;28;20211;-58
2022/04/30 12:25:21;;;;;;;7.40;3.72;;;19.80;99.90;;;;;;5063474;28;21567;-57
2022/04/30 12:27:53;;;;;;;4.30;3.72;;;20.60;99.90;;;;;;5063537;28;20194;-58
2022/04/30 12:30:51;;;;;;;4.78;4.13;;;21.10;99.90;;;;;;5063309;28;20199;-58
2022/04/30 12:33:18;;;;;;;4.90;3.90;;;21.60;99.90;;;;;;5065627;28;20768;-58
2022/04/30 12:35:54;;;;;;;6.03;3.90;;;22.60;99.90;;;;;;5066104;28;20264;-58
2022/04/30 12:38:21;;;;;;;4.22;3.83;;;22.20;99.90;;;;;;5064720;28;20202;-58
2022/04/30 12:40:50;;;;;;;6.07;3.95;;;20.50;99.90;;;;;;5062172;28;20565;-58
2022/04/30 12:43:19;;;;;;;4.05;3.55;;;19.00;99.90;;;;;;5062408;28;20589;-59
2022/04/30 12:45:49;;;;;;;5.55;4.22;;;19.00;99.90;;;;;;5064989;28;20658;-57
2022/04/30 12:48:16;;;;;;;6.63;3.90;;;19.80;99.90;;;;;;5061055;28;20191;-57
2022/04/30 12:50:48;;;;;;;8.38;4.30;;;19.90;99.90;;;;;;5063723;28;20765;-58
2022/04/30 12:53:15;;;;;;;4.63;3.28;;;20.20;99.90;;;;;;5060741;28;20254;-59
2022/04/30 12:55:45;;;;;;;6.28;4.07;;;20.20;99.90;;;;;;5063278;28;20290;-58
2022/04/30 12:58:11;;;;;;;5.45;3.97;;;20.10;99.90;;;;;;5046969;28;20745;-57
2022/04/30 13:00:38;;;;;;;3.83;3.45;;;19.60;99.90;;;;;;5064719;28;20203;-57
2022/04/30 13:03:07;;;;;;;5.80;3.90;;;19.30;99.90;;;;;;5043425;28;20289;-58
2022/04/30 13:05:35;;;;;;;4.85;3.42;;;18.70;99.90;;;;;;5064075;28;20207;-58
2022/04/30 13:08:03;;;;;;;7.50;4.28;;;19.10;99.90;;;;;;5062290;28;20218;-60
2022/04/30 13:13:31;;;;;;;3.90;3.05;;;19.60;99.90;;;;;;5063169;28;20194;-58
2022/04/30 13:16:01;;;;;;;4.63;3.38;;;20.10;99.90;;;;;;5063359;28;20198;-58
2022/04/30 13:18:28;;;;;;;4.15;2.92;;;20.40;99.90;;;;;;5064875;28;20244;-59
2022/04/30 13:20:55;;;;;;;5.90;3.42;;;20.70;99.90;;;;;;5030343;28;20233;-58
2022/04/30 13:23:22;;;;;;;4.28;3.45;;;20.40;99.90;;;;;;5062288;28;20218;-59
2022/04/30 13:25:51;;;;;;;5.80;3.65;;;20.30;99.90;;;;;;5063853;28;20187;-57
2022/04/30 13:28:18;;;;;;;5.43;3.70;;;19.40;99.90;;;;;;5063486;28;20274;-57
2022/04/30 13:30:45;;;;;;;6.60;3.65;;;18.90;99.90;;;;;;5046737;28;20191;-58
2022/04/30 13:33:16;;;;;;;4.85;3.45;;;17.60;99.90;;;;;;5062151;28;20729;-58
2022/04/30 13:35:43;;;;;;;5.57;4.90;;;17.90;99.90;;;;;;5044034;28;20701;-58
2022/04/30 13:38:10;;;;;;;8.55;6.53;;;18.30;99.90;;;;;;5043387;28;20223;-58
2022/04/30 13:40:37;;;;;;;5.57;4.57;;;18.20;99.90;;;;;;5061643;28;20222;-58
2022/04/30 13:43:09;;;;;;;4.00;3.10;;;18.30;99.90;;;;;;5059179;28;20259;-58
2022/04/30 13:45:36;;;;;;;6.13;3.72;;;18.50;99.90;;;;;;5063707;28;20219;-57